createdAt,value
2023-01-08T00:00:52.304Z,37.39
2023-01-08T00:01:52.181Z,34.22
2023-01-08T00:02:52.386Z,35.08
2023-01-08T00:03:52.320Z,38.34
2023-01-08T00:04:52.107Z,35.45
2023-01-08T00:56:17.536Z,25.00
2023-01-08T00:57:18.385Z,25.00
2023-01-08T00:58:18.372Z,25.00
2023-01-08T00:59:18.341Z,25.00
2023-01-08T01:00:18.331Z,25.00
2023-01-08T01:01:18.448Z,25.00
2023-01-08T01:02:18.387Z,0.00
2023-01-08T01:03:18.264Z,0.00
2023-01-08T01:04:18.267Z,0.00
2023-01-08T01:05:18.220Z,0.00
2023-01-08T01:06:18.212Z,0.00
2023-01-08T01:07:18.174Z,0.00
2023-01-08T01:08:18.158Z,17.18
2023-01-08T01:09:18.135Z,25.00
2023-01-08T01:10:18.109Z,25.00
2023-01-08T01:11:18.088Z,25.35
2023-01-08T01:12:18.198Z,25.00
2023-01-08T01:13:18.073Z,26.92
2023-01-08T01:14:18.050Z,26.45
2023-01-08T01:15:18.003Z,25.00
2023-01-08T01:16:18.015Z,26.44
2023-01-08T01:17:17.976Z,29.01
2023-01-08T01:18:17.935Z,27.77
2023-01-08T01:19:17.912Z,26.12
2023-01-08T01:20:17.908Z,27.51
2023-01-08T01:21:17.880Z,28.67
2023-01-08T01:22:17.855Z,28.99
2023-01-08T01:23:17.913Z,26.46
2023-01-08T01:24:17.809Z,24.07
2023-01-08T01:25:17.795Z,28.26
2023-01-08T01:26:17.784Z,26.16
2023-01-08T01:27:17.755Z,29.02
2023-01-08T01:28:17.856Z,31.59
2023-01-08T01:29:17.712Z,27.37
2023-01-08T01:30:17.676Z,26.95
2023-01-08T01:31:17.731Z,26.51
2023-01-08T01:32:17.627Z,28.45
2023-01-08T01:33:17.608Z,26.48
2023-01-08T01:34:17.594Z,28.32
2023-01-08T01:35:17.582Z,31.83
2023-01-08T01:36:17.538Z,32.13
2023-01-08T01:37:17.515Z,30.41
2023-01-08T01:38:17.487Z,25.00
2023-01-08T01:39:17.475Z,31.13
2023-01-08T01:40:17.446Z,29.26
2023-01-08T01:41:17.458Z,30.77
2023-01-08T01:42:17.411Z,26.90
2023-01-08T01:43:17.392Z,25.50
2023-01-08T01:44:17.489Z,25.00
2023-01-08T01:45:17.381Z,34.29
2023-01-08T01:46:17.419Z,34.93
2023-01-08T01:47:17.323Z,31.90
2023-01-08T01:48:17.326Z,35.37
2023-01-08T01:49:17.290Z,32.65
2023-01-08T01:50:17.263Z,26.77
2023-01-08T01:51:17.249Z,31.29
2023-01-08T01:52:17.227Z,36.02
2023-01-08T01:53:17.205Z,27.31
2023-01-08T01:54:17.191Z,32.47
2023-01-08T01:55:17.170Z,32.44
2023-01-08T01:56:17.163Z,25.66
2023-01-08T01:57:17.157Z,34.07
2023-01-08T01:58:17.122Z,33.73
2023-01-08T01:59:17.109Z,36.32
2023-01-08T02:00:17.105Z,29.81
2023-01-08T02:01:17.196Z,34.41
2023-01-08T02:02:17.264Z,32.34
2023-01-08T02:03:17.024Z,33.08
2023-01-08T02:04:17.112Z,34.22
2023-01-08T02:05:16.986Z,33.41
2023-01-08T02:06:16.961Z,29.78
2023-01-08T02:07:16.938Z,32.25
2023-01-08T02:08:16.923Z,29.71
2023-01-08T02:09:16.901Z,33.95
2023-01-08T02:10:16.882Z,29.87
2023-01-08T02:11:16.867Z,25.38
2023-01-08T02:12:16.911Z,26.96
2023-01-08T02:13:16.835Z,29.95
2023-01-08T02:14:16.815Z,30.85
2023-01-08T02:15:16.795Z,27.97
2023-01-08T02:16:16.969Z,27.44
2023-01-08T02:17:16.770Z,29.13
2023-01-08T02:18:16.759Z,28.40
2023-01-08T02:19:16.748Z,34.61
2023-01-08T02:20:16.716Z,32.54
2023-01-08T02:21:16.699Z,32.18
2023-01-08T02:22:16.675Z,31.71
2023-01-08T02:23:16.657Z,29.45
2023-01-08T02:24:16.638Z,28.62
2023-01-08T02:25:16.612Z,28.21
2023-01-08T02:26:16.586Z,32.57
2023-01-08T02:27:16.567Z,34.38
2023-01-08T02:28:16.548Z,33.16
2023-01-08T02:29:16.534Z,28.32
2023-01-08T02:30:16.536Z,40.45
2023-01-08T02:31:16.614Z,37.38
2023-01-08T02:32:16.589Z,29.92
2023-01-08T02:33:16.452Z,32.28
2023-01-08T02:34:16.437Z,30.67
2023-01-08T02:35:16.425Z,34.70
2023-01-08T02:36:16.388Z,35.12
2023-01-08T02:37:16.367Z,31.38
2023-01-08T02:38:16.351Z,30.91
2023-01-08T02:39:16.328Z,31.51
2023-01-08T02:40:16.302Z,33.23
2023-01-08T02:41:16.274Z,33.02
2023-01-08T02:42:16.263Z,34.21
2023-01-08T02:43:16.237Z,31.13
2023-01-08T02:44:16.213Z,32.10
2023-01-08T02:45:16.248Z,29.66
2023-01-08T02:46:16.214Z,32.78
2023-01-08T02:47:16.145Z,31.31
2023-01-08T02:48:16.241Z,36.18
2023-01-08T02:49:16.105Z,37.77
2023-01-08T02:50:16.080Z,28.20
2023-01-08T02:51:16.073Z,33.05
2023-01-08T02:52:16.045Z,35.75
2023-01-08T02:53:16.025Z,38.27
2023-01-08T02:54:16.000Z,34.55
2023-01-08T02:55:16.033Z,39.19
2023-01-08T02:56:15.970Z,30.61
2023-01-08T02:57:15.961Z,35.30
2023-01-08T02:58:15.931Z,32.67
2023-01-08T02:59:15.918Z,34.38
2023-01-08T03:00:15.889Z,33.30
2023-01-08T03:01:16.105Z,36.66
2023-01-08T03:02:16.045Z,34.74
2023-01-08T03:03:15.854Z,30.44
2023-01-08T03:04:16.053Z,38.19
2023-01-08T03:05:15.808Z,34.34
2023-01-08T03:06:15.777Z,29.64
2023-01-08T03:07:15.761Z,37.34
2023-01-08T03:08:15.734Z,40.10
2023-01-08T03:09:15.738Z,44.59
2023-01-08T03:10:15.703Z,38.94
2023-01-08T03:11:15.683Z,34.06
2023-01-08T03:12:15.663Z,35.54
2023-01-08T03:13:15.660Z,36.03
2023-01-08T03:14:15.766Z,34.01
2023-01-08T03:15:15.625Z,33.67
2023-01-08T03:16:15.704Z,36.19
2023-01-08T03:17:15.596Z,37.88
2023-01-08T03:18:15.585Z,38.67
2023-01-08T03:19:15.557Z,34.66
2023-01-08T03:20:15.689Z,35.89
2023-01-08T03:21:15.521Z,37.35
2023-01-08T03:22:15.507Z,39.63
2023-01-08T03:23:15.489Z,38.06
2023-01-08T03:24:15.477Z,38.77
2023-01-08T03:25:15.454Z,38.79
2023-01-08T03:26:15.434Z,32.50
2023-01-08T03:27:15.429Z,39.32
2023-01-08T03:28:15.396Z,34.80
2023-01-08T03:29:15.381Z,37.44
2023-01-08T03:30:15.387Z,33.29
2023-01-08T03:31:15.410Z,35.36
2023-01-08T03:32:15.313Z,35.76
2023-01-08T03:33:15.295Z,34.01
2023-01-08T03:34:15.280Z,35.07
2023-01-08T03:35:15.260Z,35.25
2023-01-08T03:36:15.351Z,34.61
2023-01-08T03:37:15.222Z,29.98
2023-01-08T03:38:15.195Z,36.52
2023-01-08T03:39:15.214Z,36.47
2023-01-08T03:40:15.165Z,29.66
2023-01-08T03:41:15.161Z,35.12
2023-01-08T03:42:15.127Z,34.20
2023-01-08T03:43:15.113Z,32.18
2023-01-08T03:44:15.110Z,33.37
2023-01-08T03:45:15.134Z,37.89
2023-01-08T03:46:15.276Z,36.13
2023-01-08T03:47:15.059Z,33.82
2023-01-08T03:48:15.023Z,37.16
2023-01-08T03:49:15.005Z,37.47
2023-01-08T03:50:14.987Z,38.09
2023-01-08T03:51:14.996Z,37.55
2023-01-08T03:52:15.074Z,36.48
2023-01-08T03:53:14.950Z,35.53
2023-01-08T03:54:14.918Z,34.78
2023-01-08T03:55:14.909Z,34.65
2023-01-08T03:56:14.888Z,36.87
2023-01-08T03:57:14.880Z,36.19
2023-01-08T03:58:14.857Z,35.60
2023-01-08T03:59:14.836Z,33.52
2023-01-08T04:00:14.812Z,38.68
2023-01-08T04:01:14.945Z,42.34
2023-01-08T04:02:14.963Z,40.45
2023-01-08T04:03:14.778Z,34.81
2023-01-08T04:04:14.829Z,44.10
2023-01-08T04:05:14.763Z,36.27
2023-01-08T04:06:14.712Z,36.90
2023-01-08T04:07:14.695Z,34.28
2023-01-08T04:08:14.815Z,35.96
2023-01-08T04:09:14.669Z,39.46
2023-01-08T04:10:14.691Z,41.83
2023-01-08T04:11:14.641Z,42.44
2023-01-08T04:12:14.618Z,40.02
2023-01-08T04:13:14.598Z,39.22
2023-01-08T04:14:14.578Z,44.68
2023-01-08T04:15:14.558Z,35.84
2023-01-08T04:16:14.603Z,43.36
2023-01-08T04:17:14.534Z,41.59
2023-01-08T04:18:14.517Z,40.09
2023-01-08T04:19:14.510Z,37.76
2023-01-08T04:20:14.500Z,42.08
2023-01-08T04:21:14.478Z,40.73
2023-01-08T04:22:14.456Z,36.90
2023-01-08T04:23:14.449Z,40.73
2023-01-08T04:24:14.566Z,41.63
2023-01-08T04:25:14.428Z,36.90
2023-01-08T04:26:14.417Z,37.93
2023-01-08T04:27:14.398Z,35.03
2023-01-08T04:28:14.373Z,40.10
2023-01-08T04:29:14.425Z,42.26
2023-01-08T04:30:14.353Z,38.89
2023-01-08T04:31:14.384Z,35.07
2023-01-08T04:32:14.311Z,35.86
2023-01-08T04:33:14.301Z,40.83
2023-01-08T04:34:14.278Z,38.35
2023-01-08T04:35:14.264Z,35.01
2023-01-08T04:36:14.257Z,34.60
2023-01-08T04:37:14.230Z,34.80
2023-01-08T04:38:14.248Z,37.25
2023-01-08T04:39:14.199Z,40.32
2023-01-08T04:40:14.293Z,43.62
2023-01-08T04:41:14.219Z,37.91
2023-01-08T04:42:14.139Z,38.90
2023-01-08T04:43:14.120Z,36.73
2023-01-08T04:44:14.103Z,36.27
2023-01-08T04:45:14.091Z,39.35
2023-01-08T04:46:14.127Z,38.83
2023-01-08T04:47:14.054Z,35.12
2023-01-08T04:48:14.029Z,39.14
2023-01-08T04:49:14.014Z,36.79
2023-01-08T04:50:14.004Z,39.72
2023-01-08T04:51:13.976Z,44.06
2023-01-08T04:52:13.977Z,42.99
2023-01-08T04:53:13.936Z,37.49
2023-01-08T04:54:13.945Z,35.68
2023-01-08T04:55:12.895Z,35.52
2023-01-08T04:56:14.011Z,36.69
2023-01-08T04:57:13.869Z,43.92
2023-01-08T04:58:13.838Z,37.17
2023-01-08T04:59:13.821Z,32.47
2023-01-08T05:00:13.802Z,39.57
2023-01-08T05:01:13.915Z,34.06
2023-01-08T05:02:14.053Z,36.30
2023-01-08T05:03:13.775Z,37.58
2023-01-08T05:04:13.745Z,38.90
2023-01-08T05:05:13.708Z,36.55
2023-01-08T05:06:13.692Z,38.16
2023-01-08T05:07:13.671Z,35.60
2023-01-08T05:08:13.656Z,37.28
2023-01-08T05:09:13.653Z,39.42
2023-01-08T05:10:13.614Z,34.24
2023-01-08T05:11:13.601Z,41.05
2023-01-08T05:12:13.613Z,40.67
2023-01-08T05:13:13.561Z,41.85
2023-01-08T05:14:13.559Z,36.51
2023-01-08T05:15:13.526Z,37.57
2023-01-08T05:16:13.609Z,37.69
2023-01-08T05:17:13.479Z,39.44
2023-01-08T05:18:13.475Z,40.83
2023-01-08T05:19:13.469Z,38.91
2023-01-08T05:20:13.449Z,37.64
2023-01-08T05:21:13.402Z,36.78
2023-01-08T05:22:13.379Z,32.95
2023-01-08T05:23:13.353Z,38.10
2023-01-08T05:24:13.332Z,37.24
2023-01-08T05:25:13.322Z,37.49
2023-01-08T05:26:13.289Z,38.99
2023-01-08T05:27:13.278Z,41.26
2023-01-08T05:28:13.387Z,39.49
2023-01-08T05:29:13.232Z,38.34
2023-01-08T05:30:13.222Z,35.35
2023-01-08T05:31:13.260Z,41.51
2023-01-08T05:32:13.184Z,42.45
2023-01-08T05:33:13.155Z,40.01
2023-01-08T05:34:13.136Z,38.33
2023-01-08T05:35:13.111Z,41.33
2023-01-08T05:36:13.102Z,35.55
2023-01-08T05:37:13.080Z,37.14
2023-01-08T05:38:13.038Z,37.18
2023-01-08T05:39:13.026Z,37.10
2023-01-08T05:40:12.987Z,36.64
2023-01-08T05:41:12.974Z,35.28
2023-01-08T05:42:12.950Z,35.06
2023-01-08T05:43:12.927Z,33.54
2023-01-08T05:44:13.014Z,37.50
2023-01-08T05:45:12.875Z,33.38
2023-01-08T05:46:12.906Z,35.47
2023-01-08T05:47:12.837Z,32.58
2023-01-08T05:48:12.811Z,36.91
2023-01-08T05:49:12.788Z,34.63
2023-01-08T05:50:12.822Z,33.97
2023-01-08T05:51:12.741Z,41.99
2023-01-08T05:52:12.712Z,33.57
2023-01-08T05:53:12.695Z,34.28
2023-01-08T05:54:12.669Z,37.71
2023-01-08T05:55:12.654Z,35.54
2023-01-08T05:56:12.666Z,34.34
2023-01-08T05:57:12.616Z,35.63
2023-01-08T05:58:12.602Z,38.57
2023-01-08T05:59:12.575Z,40.38
2023-01-08T06:00:12.688Z,39.55
2023-01-08T06:01:12.590Z,35.66
2023-01-08T06:02:12.529Z,38.04
2023-01-08T06:03:12.651Z,36.22
2023-01-08T06:04:12.523Z,36.75
2023-01-08T06:05:12.450Z,33.56
2023-01-08T06:06:12.437Z,34.54
2023-01-08T06:07:12.416Z,33.55
2023-01-08T06:08:12.393Z,32.36
2023-01-08T06:09:12.379Z,35.93
2023-01-08T06:10:12.359Z,35.18
2023-01-08T06:11:12.335Z,37.85
2023-01-08T06:12:12.324Z,35.77
2023-01-08T06:13:12.302Z,33.55
2023-01-08T06:14:12.287Z,36.59
2023-01-08T06:15:12.270Z,35.39
2023-01-08T06:16:12.453Z,35.21
2023-01-08T06:17:12.240Z,35.12
2023-01-08T06:18:12.268Z,36.47
2023-01-08T06:19:12.212Z,38.56
2023-01-08T06:20:12.197Z,41.21
2023-01-08T06:21:12.177Z,35.53
2023-01-08T06:22:12.161Z,36.99
2023-01-08T06:23:12.168Z,36.92
2023-01-08T06:24:12.138Z,36.71
2023-01-08T06:25:12.148Z,35.79
2023-01-08T06:26:12.106Z,37.10
2023-01-08T06:27:12.099Z,36.99
2023-01-08T06:28:12.076Z,35.42
2023-01-08T06:29:12.054Z,37.93
2023-01-08T06:30:12.038Z,33.62
2023-01-08T06:31:12.064Z,37.83
2023-01-08T06:32:12.177Z,32.12
2023-01-08T06:33:12.009Z,35.06
2023-01-08T06:34:11.979Z,33.04
2023-01-08T06:35:12.056Z,39.11
2023-01-08T06:36:11.945Z,39.06
2023-01-08T06:37:11.965Z,33.52
2023-01-08T06:38:11.900Z,34.53
2023-01-08T06:39:11.875Z,36.10
2023-01-08T06:40:11.852Z,34.97
2023-01-08T06:41:11.834Z,34.05
2023-01-08T06:42:11.825Z,30.31
2023-01-08T06:43:11.800Z,32.67
2023-01-08T06:44:11.787Z,35.84
2023-01-08T06:45:11.784Z,31.84
2023-01-08T06:46:11.790Z,33.13
2023-01-08T06:47:11.749Z,32.33
2023-01-08T06:48:11.878Z,33.29
2023-01-08T06:49:11.725Z,33.50
2023-01-08T06:50:11.701Z,33.52
2023-01-08T06:51:11.689Z,35.71
2023-01-08T06:52:11.676Z,31.90
2023-01-08T06:53:11.678Z,36.10
2023-01-08T06:54:13.593Z,33.40
2023-01-08T06:55:11.657Z,34.12
2023-01-08T06:56:11.631Z,37.88
2023-01-08T06:57:11.616Z,36.28
2023-01-08T06:58:11.597Z,35.64
2023-01-08T06:59:11.580Z,37.57
2023-01-08T07:00:11.569Z,38.46
2023-01-08T07:01:11.691Z,36.16
2023-01-08T07:02:11.813Z,36.56
2023-01-08T07:03:11.605Z,35.72
2023-01-08T07:04:11.648Z,31.94
2023-01-08T07:05:11.493Z,32.39
2023-01-08T07:06:11.477Z,33.16
2023-01-08T07:07:11.459Z,35.55
2023-01-08T07:08:11.445Z,34.92
2023-01-08T07:09:11.428Z,32.96
2023-01-08T07:10:11.437Z,37.29
2023-01-08T07:11:11.411Z,35.56
2023-01-08T07:12:11.387Z,33.11
2023-01-08T07:13:11.371Z,38.04
2023-01-08T07:14:11.353Z,39.04
2023-01-08T07:15:11.337Z,38.51
2023-01-08T07:16:11.448Z,35.26
2023-01-08T07:17:11.300Z,34.34
2023-01-08T07:18:11.294Z,28.63
2023-01-08T07:19:11.259Z,35.57
2023-01-08T07:20:11.374Z,34.04
2023-01-08T07:21:11.241Z,39.38
2023-01-08T07:22:11.203Z,37.74
2023-01-08T07:23:11.188Z,36.66
2023-01-08T07:24:11.178Z,36.98
2023-01-08T07:25:11.220Z,34.03
2023-01-08T07:26:11.140Z,37.46
2023-01-08T07:27:11.117Z,36.77
2023-01-08T07:28:11.105Z,32.83
2023-01-08T07:29:11.095Z,34.08
2023-01-08T07:30:28.312Z,34.54
2023-01-08T07:31:11.095Z,35.00
2023-01-08T07:32:11.040Z,35.47
2023-01-08T07:33:11.009Z,34.73
2023-01-08T07:34:10.995Z,32.58
2023-01-08T07:35:10.995Z,33.00
2023-01-08T07:36:11.101Z,35.17
2023-01-08T07:37:10.972Z,35.58
2023-01-08T07:38:10.959Z,38.10
2023-01-08T07:39:10.943Z,35.14
2023-01-08T07:40:10.928Z,36.56
2023-01-08T07:41:10.915Z,35.49
2023-01-08T07:42:10.899Z,33.24
2023-01-08T07:43:10.893Z,34.67
2023-01-08T07:44:10.871Z,36.15
2023-01-08T07:45:10.858Z,33.98
2023-01-08T07:46:10.892Z,34.26
2023-01-08T07:47:10.834Z,33.00
2023-01-08T07:48:10.811Z,34.60
2023-01-08T07:49:10.793Z,37.74
2023-01-08T07:50:10.788Z,32.83
2023-01-08T07:51:10.773Z,31.91
2023-01-08T07:52:10.882Z,32.33
2023-01-08T07:53:10.748Z,33.81
2023-01-08T07:54:10.752Z,33.76
2023-01-08T07:55:10.723Z,33.91
2023-01-08T07:56:10.712Z,36.45
2023-01-08T07:57:10.693Z,31.73
2023-01-08T07:58:10.687Z,32.50
2023-01-08T07:59:10.675Z,33.99
2023-01-08T08:00:10.677Z,29.27
2023-01-08T08:01:10.741Z,32.86
2023-01-08T08:02:10.823Z,31.34
2023-01-08T08:03:10.661Z,34.37
2023-01-08T08:04:10.590Z,32.90
2023-01-08T08:05:10.585Z,31.48
2023-01-08T08:06:10.566Z,31.13
2023-01-08T08:07:10.542Z,34.47
2023-01-08T08:08:10.652Z,33.53
2023-01-08T08:09:10.505Z,32.35
2023-01-08T08:10:10.482Z,28.58
2023-01-08T08:11:10.480Z,30.61
2023-01-08T08:12:10.451Z,33.56
2023-01-08T08:13:10.425Z,33.92
2023-01-08T08:14:10.407Z,30.63
2023-01-08T08:15:10.390Z,33.33
2023-01-08T08:16:10.442Z,31.99
2023-01-08T08:17:10.357Z,32.55
2023-01-08T08:18:10.343Z,29.05
2023-01-08T08:19:10.311Z,33.16
2023-01-08T08:20:10.294Z,29.83
2023-01-08T08:21:10.275Z,33.00
2023-01-08T08:22:10.253Z,32.46
2023-01-08T08:23:10.237Z,34.28
2023-01-08T08:24:10.347Z,33.57
2023-01-08T08:25:10.213Z,31.19
2023-01-08T08:26:10.183Z,32.44
2023-01-08T08:27:10.170Z,32.95
2023-01-08T08:28:10.150Z,30.77
2023-01-08T08:29:10.135Z,30.54
2023-01-08T08:30:10.128Z,30.48
2023-01-08T08:31:10.164Z,34.17
2023-01-08T08:32:10.090Z,36.07
2023-01-08T08:33:10.083Z,30.79
2023-01-08T08:34:10.058Z,31.75
2023-01-08T08:35:10.045Z,34.15
2023-01-08T08:36:10.038Z,32.69
2023-01-08T08:37:10.002Z,33.08
2023-01-08T08:38:09.998Z,31.81
2023-01-08T08:39:09.968Z,35.62
2023-01-08T08:40:10.071Z,32.79
2023-01-08T08:41:09.937Z,33.76
2023-01-08T08:42:09.918Z,30.12
2023-01-08T08:43:09.944Z,32.98
2023-01-08T08:44:09.886Z,34.13
2023-01-08T08:45:09.871Z,34.59
2023-01-08T08:46:09.860Z,29.96
2023-01-08T08:47:09.854Z,32.14
2023-01-08T08:48:09.846Z,30.78
2023-01-08T08:49:09.808Z,32.00
2023-01-08T08:50:09.789Z,31.35
2023-01-08T08:51:09.778Z,30.76
2023-01-08T08:52:09.765Z,31.71
2023-01-08T08:53:09.752Z,32.04
2023-01-08T08:54:09.739Z,31.21
2023-01-08T08:55:09.728Z,29.97
2023-01-08T08:56:09.847Z,32.64
2023-01-08T08:57:09.708Z,32.32
2023-01-08T08:58:09.700Z,33.23
2023-01-08T08:59:09.690Z,30.68
2023-01-08T09:00:09.693Z,30.71
2023-01-08T09:01:09.782Z,27.72
2023-01-08T09:02:09.809Z,32.05
2023-01-08T09:03:09.803Z,33.77
2023-01-08T09:04:09.633Z,33.26
2023-01-08T09:05:09.639Z,33.56
2023-01-08T09:06:09.617Z,30.19
2023-01-08T09:07:09.604Z,32.29
2023-01-08T09:08:09.607Z,28.56
2023-01-08T09:09:09.583Z,32.02
2023-01-08T09:10:09.561Z,26.46
2023-01-08T09:11:09.554Z,32.27
2023-01-08T09:12:09.704Z,33.21
2023-01-08T09:13:09.548Z,33.50
2023-01-08T09:14:09.521Z,31.91
2023-01-08T09:15:09.497Z,30.86
2023-01-08T09:16:09.526Z,28.60
2023-01-08T09:17:09.463Z,29.67
2023-01-08T09:18:09.446Z,33.59
2023-01-08T09:19:09.432Z,33.01
2023-01-08T09:20:09.426Z,29.47
2023-01-08T09:21:09.417Z,31.74
2023-01-08T09:22:09.401Z,29.28
2023-01-08T09:23:09.378Z,32.16
2023-01-08T09:24:09.371Z,32.68
2023-01-08T09:25:09.350Z,28.17
2023-01-08T09:26:09.368Z,32.12
2023-01-08T09:27:11.139Z,28.61
2023-01-08T09:28:09.434Z,28.85
2023-01-08T09:29:09.297Z,29.53
2023-01-08T09:30:09.289Z,29.72
2023-01-08T09:31:09.325Z,30.99
2023-01-08T09:32:09.290Z,33.69
2023-01-08T09:33:09.239Z,31.86
2023-01-08T09:34:09.216Z,31.18
2023-01-08T09:35:09.198Z,31.02
2023-01-08T09:36:09.182Z,32.68
2023-01-08T09:37:09.170Z,29.14
2023-01-08T09:38:09.151Z,31.87
2023-01-08T09:39:09.132Z,31.44
2023-01-08T09:40:09.119Z,32.75
2023-01-08T09:41:09.101Z,34.41
2023-01-08T09:42:09.091Z,31.52
2023-01-08T09:43:09.086Z,28.87
2023-01-08T09:44:09.179Z,32.81
2023-01-08T09:45:09.041Z,29.66
2023-01-08T09:46:09.028Z,31.90
2023-01-08T09:47:09.017Z,31.28
2023-01-08T09:48:09.007Z,30.67
2023-01-08T09:49:09.039Z,30.30
2023-01-08T09:50:08.979Z,32.13
2023-01-08T09:51:08.969Z,31.69
2023-01-08T09:52:08.955Z,28.84
2023-01-08T09:53:08.941Z,31.54
2023-01-08T09:54:08.935Z,31.35
2023-01-08T09:55:08.923Z,32.04
2023-01-08T09:56:10.594Z,27.60
2023-01-08T09:57:08.900Z,27.84
2023-01-08T09:58:08.875Z,28.63
2023-01-08T09:59:08.865Z,28.41
2023-01-08T10:00:08.974Z,30.54
2023-01-08T10:01:08.991Z,32.22
2023-01-08T10:02:09.005Z,32.93
2023-01-08T10:03:08.790Z,30.81
2023-01-08T10:04:08.775Z,32.03
2023-01-08T10:05:08.762Z,26.95
2023-01-08T10:06:08.749Z,28.71
2023-01-08T10:07:08.731Z,29.62
2023-01-08T10:08:08.729Z,30.58
2023-01-08T10:09:09.264Z,28.11
2023-01-08T10:10:08.683Z,31.54
2023-01-08T10:11:08.672Z,29.50
2023-01-08T10:12:08.659Z,29.32
2023-01-08T10:13:08.657Z,30.20
2023-01-08T10:14:08.628Z,30.73
2023-01-08T10:15:08.614Z,31.95
2023-01-08T10:16:08.755Z,31.34
2023-01-08T10:17:11.596Z,32.36
2023-01-08T10:18:08.567Z,32.52
2023-01-08T10:19:08.555Z,32.48
2023-01-08T10:20:08.542Z,32.72
2023-01-08T10:21:08.534Z,30.12
2023-01-08T10:22:08.520Z,29.69
2023-01-08T10:23:08.499Z,33.56
2023-01-08T10:24:08.485Z,28.95
2023-01-08T10:25:08.470Z,29.93
2023-01-08T10:26:08.457Z,30.03
2023-01-08T10:27:08.449Z,30.48
2023-01-08T10:28:08.442Z,31.12
2023-01-08T10:29:08.426Z,31.01
2023-01-08T10:30:08.412Z,33.02
2023-01-08T10:31:08.430Z,33.34
2023-01-08T10:32:08.505Z,31.28
2023-01-08T10:33:08.389Z,32.02
2023-01-08T10:34:08.360Z,28.38
2023-01-08T10:35:08.349Z,28.44
2023-01-08T10:36:08.335Z,26.76
2023-01-08T10:37:08.312Z,27.53
2023-01-08T10:38:08.301Z,29.54
2023-01-08T10:39:08.293Z,28.81
2023-01-08T10:40:08.276Z,30.69
2023-01-08T10:41:08.261Z,27.18
2023-01-08T10:42:08.246Z,28.33
2023-01-08T10:43:08.234Z,30.72
2023-01-08T10:44:08.216Z,29.36
2023-01-08T10:45:08.214Z,28.27
2023-01-08T10:46:08.250Z,29.44
2023-01-08T10:47:08.176Z,26.20
2023-01-08T10:48:08.204Z,31.45
2023-01-08T10:49:08.151Z,31.52
2023-01-08T10:50:08.148Z,27.77
2023-01-08T10:51:08.130Z,30.85
2023-01-08T10:52:08.115Z,30.50
2023-01-08T10:53:08.102Z,30.67
2023-01-08T10:54:08.089Z,28.82
2023-01-08T10:55:08.075Z,31.76
2023-01-08T10:56:08.054Z,30.29
2023-01-08T10:57:08.038Z,29.95
2023-01-08T10:58:08.027Z,29.80
2023-01-08T10:59:08.003Z,27.64
2023-01-08T11:00:07.992Z,31.06
2023-01-08T11:01:08.026Z,27.08
2023-01-08T11:02:08.024Z,28.93
2023-01-08T11:03:07.946Z,26.88
2023-01-08T11:04:07.969Z,27.76
2023-01-08T11:05:07.918Z,26.22
2023-01-08T11:06:07.905Z,29.10
2023-01-08T11:07:07.897Z,29.03
2023-01-08T11:08:07.885Z,29.39
2023-01-08T11:09:07.887Z,30.05
2023-01-08T11:10:07.846Z,31.07
2023-01-08T11:11:07.844Z,26.37
2023-01-08T11:12:07.834Z,32.73
2023-01-08T11:13:07.809Z,29.87
2023-01-08T11:14:07.798Z,30.03
2023-01-08T11:15:07.790Z,27.85
2023-01-08T11:16:07.856Z,34.04
2023-01-08T11:17:07.758Z,30.77
2023-01-08T11:18:07.739Z,32.20
2023-01-08T11:19:07.728Z,28.32
2023-01-08T11:20:07.747Z,30.28
2023-01-08T11:21:07.706Z,32.16
2023-01-08T11:22:07.682Z,30.79
2023-01-08T11:23:07.669Z,29.25
2023-01-08T11:24:07.654Z,31.87
2023-01-08T11:25:07.646Z,30.88
2023-01-08T11:26:07.656Z,31.68
2023-01-08T11:27:07.634Z,30.88
2023-01-08T11:28:07.595Z,31.08
2023-01-08T11:29:07.579Z,32.60
2023-01-08T11:30:07.577Z,30.96
2023-01-08T11:31:07.556Z,27.06
2023-01-08T11:32:07.543Z,31.01
2023-01-08T11:33:07.538Z,31.92
2023-01-08T11:34:07.521Z,28.50
2023-01-08T11:35:07.502Z,31.88
2023-01-08T11:36:07.604Z,29.74
2023-01-08T11:37:07.484Z,29.46
2023-01-08T11:38:07.472Z,30.50
2023-01-08T11:39:07.468Z,29.45
2023-01-08T11:40:07.452Z,28.96
2023-01-08T11:41:07.459Z,28.48
2023-01-08T11:42:07.430Z,29.99
2023-01-08T11:43:07.438Z,25.00
2023-01-08T11:44:07.408Z,30.94
2023-01-08T11:45:07.435Z,32.32
2023-01-08T11:46:07.449Z,31.26
2023-01-08T11:47:07.408Z,27.26
2023-01-08T11:48:07.406Z,27.58
2023-01-08T11:49:07.367Z,29.86
2023-01-08T11:50:07.355Z,28.51
2023-01-08T11:51:07.344Z,27.34
2023-01-08T11:52:07.349Z,27.72
2023-01-08T11:53:07.310Z,27.56
2023-01-08T11:54:07.288Z,27.17
2023-01-08T11:55:07.274Z,26.42
2023-01-08T11:56:07.261Z,29.55
2023-01-08T11:57:07.243Z,29.13
2023-01-08T11:58:07.231Z,25.45
2023-01-08T11:59:07.213Z,27.88
2023-01-08T12:00:07.237Z,26.74
2023-01-08T12:01:07.199Z,26.02
2023-01-08T12:02:07.200Z,27.28
2023-01-08T12:03:07.228Z,25.00
2023-01-08T12:04:07.155Z,27.81
2023-01-08T12:05:07.154Z,28.87
2023-01-08T12:06:07.133Z,27.22
2023-01-08T12:07:07.129Z,29.89
2023-01-08T12:08:07.140Z,29.70
2023-01-08T12:09:07.098Z,29.21
2023-01-08T12:10:07.088Z,28.75
2023-01-08T12:11:07.075Z,30.49
2023-01-08T12:12:07.062Z,31.22
2023-01-08T12:13:07.042Z,32.03
2023-01-08T12:14:07.030Z,28.88
2023-01-08T12:15:07.033Z,28.76
2023-01-08T12:16:07.019Z,31.23
2023-01-08T12:17:06.987Z,31.54
2023-01-08T12:18:06.983Z,29.71
2023-01-08T12:19:06.958Z,27.01
2023-01-08T12:20:06.949Z,30.13
2023-01-08T12:21:06.936Z,27.78
2023-01-08T12:22:06.908Z,28.24
2023-01-08T12:23:06.957Z,33.75
2023-01-08T12:24:06.908Z,29.64
2023-01-08T12:25:06.863Z,28.33
2023-01-08T12:26:06.849Z,27.82
2023-01-08T12:27:06.835Z,28.91
2023-01-08T12:28:06.817Z,29.91
2023-01-08T12:29:06.825Z,28.24
2023-01-08T12:30:06.793Z,30.91
2023-01-08T12:31:06.787Z,31.43
2023-01-08T12:32:07.026Z,31.26
2023-01-08T12:33:06.771Z,28.62
2023-01-08T12:34:06.748Z,30.68
2023-01-08T12:35:06.732Z,27.78
2023-01-08T12:36:06.723Z,27.16
2023-01-08T12:37:06.724Z,31.31
2023-01-08T12:38:06.698Z,31.22
2023-01-08T12:39:06.692Z,27.99
2023-01-08T12:40:06.703Z,25.19
2023-01-08T12:41:06.670Z,28.91
2023-01-08T12:42:06.659Z,28.28
2023-01-08T12:43:06.649Z,29.07
2023-01-08T12:44:06.627Z,29.25
2023-01-08T12:45:06.618Z,30.99
2023-01-08T12:46:06.666Z,27.36
2023-01-08T12:47:06.607Z,29.85
2023-01-08T12:48:06.585Z,29.34
2023-01-08T12:49:06.562Z,29.17
2023-01-08T12:50:06.550Z,30.18
2023-01-08T12:51:06.548Z,28.11
2023-01-08T12:52:06.530Z,25.06
2023-01-08T12:53:06.515Z,30.92
2023-01-08T12:54:06.516Z,32.39
2023-01-08T12:55:06.494Z,29.64
2023-01-08T12:56:06.503Z,29.19
2023-01-08T12:57:06.465Z,29.59
2023-01-08T12:58:06.459Z,31.11
2023-01-08T12:59:06.442Z,30.44
2023-01-08T13:00:06.417Z,29.45
2023-01-08T13:01:06.486Z,28.25
2023-01-08T13:02:06.543Z,30.10
2023-01-08T13:03:06.443Z,30.72
2023-01-08T13:04:06.382Z,27.55
2023-01-08T13:05:06.360Z,32.08
2023-01-08T13:06:06.340Z,29.39
2023-01-08T13:07:06.332Z,30.61
2023-01-08T13:08:06.312Z,28.55
2023-01-08T13:09:06.314Z,27.12
2023-01-08T13:10:06.285Z,30.29
2023-01-08T13:11:06.287Z,28.84
2023-01-08T13:12:06.298Z,30.97
2023-01-08T13:13:06.257Z,28.61
2023-01-08T13:14:06.235Z,30.91
2023-01-08T13:15:06.218Z,27.25
2023-01-08T13:16:06.212Z,28.66
2023-01-08T13:17:06.196Z,29.76
2023-01-08T13:18:06.184Z,30.88
2023-01-08T13:19:06.170Z,28.87
2023-01-08T13:20:06.159Z,29.21
2023-01-08T13:21:06.146Z,29.52
2023-01-08T13:22:06.133Z,27.80
2023-01-08T13:23:06.124Z,27.72
2023-01-08T13:24:06.122Z,30.49
2023-01-08T13:25:06.105Z,32.23
2023-01-08T13:26:06.133Z,31.18
2023-01-08T13:27:06.089Z,30.49
2023-01-08T13:28:06.098Z,28.19
2023-01-08T13:29:06.072Z,27.16
2023-01-08T13:30:06.055Z,28.71
2023-01-08T13:31:06.053Z,27.89
2023-01-08T13:32:06.044Z,29.80
2023-01-08T13:33:06.036Z,27.84
2023-01-08T13:34:06.022Z,30.14
2023-01-08T13:35:06.019Z,29.21
2023-01-08T13:36:06.003Z,25.67
2023-01-08T13:37:07.843Z,27.99
2023-01-08T13:38:05.974Z,28.39
2023-01-08T13:39:05.969Z,29.26
2023-01-08T13:40:05.962Z,29.70
2023-01-08T13:41:05.944Z,30.19
2023-01-08T13:42:05.924Z,28.32
2023-01-08T13:43:05.908Z,30.02